createdAt,value
2019-01-25T00:01:52.388Z,52.05
2019-01-25T00:04:22.101Z,54.15
2019-01-25T00:06:51.973Z,48.10
2019-01-25T00:09:21.585Z,46.10
2019-01-25T00:11:51.484Z,49.05
2019-01-25T00:14:21.325Z,47.67
2019-01-25T00:16:51.217Z,50.05
2019-01-25T00:19:20.860Z,44.73
2019-01-25T00:21:50.486Z,53.13
2019-01-25T00:24:20.121Z,46.53
2019-01-25T00:26:50.028Z,44.00
2019-01-25T00:29:20.182Z,49.67
2019-01-25T00:31:49.784Z,39.50
2019-01-25T00:34:19.447Z,53.40
2019-01-25T00:36:49.306Z,45.63
2019-01-25T00:39:18.950Z,48.90
2019-01-25T00:41:48.575Z,45.33
2019-01-25T00:44:18.489Z,44.10
2019-01-25T00:46:48.331Z,43.55
2019-01-25T00:49:17.965Z,45.48
2019-01-25T00:51:47.588Z,48.20
2019-01-25T00:54:17.463Z,45.70
2019-01-25T00:56:47.320Z,47.85
2019-01-25T00:59:16.986Z,48.15
2019-01-25T01:01:46.574Z,47.95
2019-01-25T01:04:16.211Z,49.98
2019-01-25T01:06:46.124Z,44.77
2019-01-25T01:09:15.685Z,41.90
2019-01-25T01:11:45.921Z,45.67
2019-01-25T01:14:15.860Z,49.33
2019-01-25T01:16:45.481Z,51.83
2019-01-25T01:19:15.128Z,41.63
2019-01-25T01:21:45.365Z,40.17
2019-01-25T01:24:15.310Z,46.83
2019-01-25T01:26:45.154Z,48.50
2019-01-25T01:29:15.325Z,44.63
2019-01-25T01:31:45.393Z,49.83
2019-01-25T01:34:15.296Z,43.68
2019-01-25T01:36:45.216Z,46.53
2019-01-25T01:39:15.059Z,42.05
2019-01-25T01:41:44.740Z,35.83
2019-01-25T01:44:14.617Z,48.10
2019-01-25T01:46:44.598Z,42.50
2019-01-25T01:49:14.462Z,42.78
2019-01-25T01:51:44.102Z,36.58
2019-01-25T01:54:13.957Z,45.20
2019-01-25T01:56:43.977Z,42.65
2019-01-25T01:59:13.799Z,42.00
2019-01-25T02:01:43.512Z,48.50
2019-01-25T02:04:13.196Z,40.48
2019-01-25T02:06:43.058Z,39.35
2019-01-25T02:09:12.708Z,40.63
2019-01-25T02:11:43.069Z,40.28
2019-01-25T02:14:12.728Z,35.20
2019-01-25T02:16:42.632Z,35.83
2019-01-25T02:19:12.202Z,49.88
2019-01-25T02:21:41.852Z,50.92
2019-01-25T02:24:11.500Z,47.38
2019-01-25T02:26:41.682Z,45.17
2019-01-25T02:29:11.340Z,43.30
2019-01-25T02:31:41.237Z,36.88
2019-01-25T02:34:10.869Z,42.13
2019-01-25T02:36:41.094Z,46.98
2019-01-25T02:39:10.820Z,48.50
2019-01-25T02:41:40.440Z,37.83
2019-01-25T02:44:10.059Z,44.90
2019-01-25T02:46:39.649Z,42.13
2019-01-25T02:49:09.612Z,48.10
2019-01-25T02:51:39.585Z,48.08
2019-01-25T02:54:09.992Z,45.20
2019-01-25T02:56:39.632Z,47.33
2019-01-25T02:59:09.291Z,49.50
2019-01-25T03:01:38.902Z,44.42
2019-01-25T03:04:09.064Z,45.28
2019-01-25T03:06:38.738Z,50.03
2019-01-25T03:09:11.161Z,44.85
2019-01-25T03:11:40.768Z,45.75
2019-01-25T03:14:11.268Z,47.93
2019-01-25T03:16:41.114Z,52.27
2019-01-25T03:19:10.764Z,46.92
2019-01-25T03:21:40.929Z,48.87
2019-01-25T03:24:10.553Z,46.23
2019-01-25T03:26:40.185Z,44.33
2019-01-25T03:29:09.762Z,38.48
2019-01-25T03:31:39.926Z,51.65
2019-01-25T03:34:10.080Z,46.53
2019-01-25T03:36:40.280Z,47.08
2019-01-25T03:39:11.165Z,46.75
2019-01-25T03:41:40.834Z,49.65
2019-01-25T03:44:10.711Z,47.33
2019-01-25T03:46:40.566Z,50.17
2019-01-25T03:49:10.258Z,45.43
2019-01-25T03:51:39.856Z,44.80
2019-01-25T03:54:10.041Z,42.73
2019-01-25T03:56:39.646Z,48.95
2019-01-25T03:59:09.558Z,53.17
2019-01-25T04:01:39.199Z,50.17
2019-01-25T04:04:08.823Z,44.20
2019-01-25T04:06:38.733Z,49.95
2019-01-25T04:09:10.370Z,48.92
2019-01-25T04:11:40.015Z,47.33
2019-01-25T04:14:10.263Z,46.80
2019-01-25T04:16:39.894Z,45.70
2019-01-25T04:19:09.812Z,42.55
2019-01-25T04:21:39.381Z,46.42
2019-01-25T04:24:09.055Z,49.83
2019-01-25T04:26:38.945Z,48.85
2019-01-25T04:29:08.858Z,49.67
2019-01-25T04:31:38.829Z,51.53
2019-01-25T04:34:08.484Z,48.28
2019-01-25T04:36:38.158Z,44.25
2019-01-25T04:39:10.015Z,49.10
2019-01-25T04:41:39.906Z,45.28
2019-01-25T04:44:09.571Z,40.48
2019-01-25T04:46:39.480Z,47.15
2019-01-25T04:49:09.123Z,48.17
2019-01-25T04:51:39.077Z,50.08
2019-01-25T04:54:08.708Z,44.42
2019-01-25T04:56:41.174Z,47.90
2019-01-25T04:59:10.906Z,40.65
2019-01-25T05:01:40.551Z,50.90
2019-01-25T05:04:10.161Z,51.53
2019-01-25T05:06:39.726Z,46.92
2019-01-25T05:09:10.244Z,43.20
2019-01-25T05:11:40.359Z,49.13
2019-01-25T05:14:09.980Z,53.68
2019-01-25T05:16:39.790Z,48.75
2019-01-25T05:19:09.401Z,50.38
2019-01-25T05:21:39.315Z,49.00
2019-01-25T05:24:12.030Z,44.63
2019-01-25T05:26:41.641Z,44.85
2019-01-25T05:29:11.297Z,53.15
2019-01-25T05:31:41.367Z,50.00
2019-01-25T05:34:11.029Z,51.70
2019-01-25T05:36:40.646Z,52.55
2019-01-25T05:39:10.248Z,44.85
2019-01-25T05:41:39.824Z,48.95
2019-01-25T05:44:09.408Z,45.73
2019-01-25T05:46:39.503Z,48.17
2019-01-25T05:49:09.615Z,44.18
2019-01-25T05:51:39.490Z,48.20
2019-01-25T05:54:09.029Z,51.88
2019-01-25T05:56:43.589Z,46.70
2019-01-25T05:59:13.171Z,44.18
2019-01-25T06:01:46.142Z,53.05
2019-01-25T06:04:16.795Z,41.65
2019-01-25T06:06:46.637Z,44.45
2019-01-25T06:09:21.455Z,45.85
2019-01-25T06:11:51.038Z,45.25
2019-01-25T06:14:20.854Z,43.38
2019-01-25T06:16:50.431Z,41.13
2019-01-25T06:19:20.012Z,43.68
2019-01-25T06:21:52.876Z,44.77
2019-01-25T06:24:22.730Z,44.00
2019-01-25T06:26:52.576Z,42.48
2019-01-25T06:29:22.454Z,39.85
2019-01-25T06:31:52.276Z,45.70
2019-01-25T06:34:21.914Z,40.33
2019-01-25T06:36:52.052Z,40.88
2019-01-25T06:39:21.864Z,40.67
2019-01-25T06:41:51.982Z,46.50
2019-01-25T06:44:21.520Z,38.95
2019-01-25T06:46:51.495Z,43.10
2019-01-25T06:49:21.086Z,40.35
2019-01-25T06:51:50.743Z,43.23
2019-01-25T06:54:20.381Z,38.48
2019-01-25T06:56:49.987Z,33.08
2019-01-25T06:59:25.939Z,43.92
2019-01-25T07:02:03.648Z,40.40
2019-01-25T07:04:33.221Z,43.25
2019-01-25T07:07:04.348Z,42.38
2019-01-25T07:09:33.944Z,41.90
2019-01-25T07:12:03.516Z,41.40
2019-01-25T07:14:33.076Z,42.78
2019-01-25T07:17:02.897Z,38.20
2019-01-25T07:19:32.525Z,40.88
2019-01-25T07:22:02.356Z,36.80
2019-01-25T07:24:31.939Z,45.08
2019-01-25T07:27:01.580Z,40.38
2019-01-25T07:29:31.121Z,37.17
2019-01-25T07:32:00.780Z,40.48
2019-01-25T07:34:30.640Z,40.12
2019-01-25T07:37:00.209Z,41.63
2019-01-25T07:39:30.067Z,37.42
2019-01-25T07:42:02.240Z,42.67
2019-01-25T07:44:31.175Z,45.73
2019-01-25T07:47:01.068Z,43.90
2019-01-25T07:49:30.925Z,40.58
2019-01-25T07:52:00.518Z,48.70
2019-01-25T07:54:30.105Z,44.85
2019-01-25T07:56:59.706Z,41.20
2019-01-25T07:59:29.558Z,45.05
2019-01-25T08:01:59.368Z,47.13
2019-01-25T08:04:28.984Z,47.85
2019-01-25T08:06:58.629Z,48.15
2019-01-25T08:09:28.429Z,50.88
2019-01-25T08:11:58.002Z,41.50
2019-01-25T08:14:27.553Z,44.70
2019-01-25T08:16:57.177Z,48.98
2019-01-25T08:19:27.341Z,46.10
2019-01-25T08:21:56.892Z,43.48
2019-01-25T08:24:26.485Z,51.53
2019-01-25T08:26:56.080Z,54.98
2019-01-25T08:29:28.142Z,42.08
2019-01-25T08:31:57.905Z,51.58
2019-01-25T08:34:27.756Z,48.68
2019-01-25T08:36:57.619Z,52.40
2019-01-25T08:39:27.768Z,49.53
2019-01-25T08:41:57.324Z,53.92
2019-01-25T08:44:27.451Z,50.67
2019-01-25T08:46:57.010Z,54.58
2019-01-25T08:49:27.068Z,57.95
2019-01-25T08:51:57.034Z,48.85
2019-01-25T08:54:26.652Z,55.75
2019-01-25T08:56:56.432Z,54.63
2019-01-25T08:59:26.134Z,45.92
2019-01-25T09:01:55.651Z,48.15
2019-01-25T09:04:25.276Z,47.93
2019-01-25T09:06:54.854Z,45.38
2019-01-25T09:09:24.676Z,43.90
2019-01-25T09:11:54.253Z,45.90
2019-01-25T09:14:23.804Z,41.60
2019-01-25T09:16:53.699Z,46.58
2019-01-25T09:19:23.379Z,38.17
2019-01-25T09:21:52.912Z,41.58
2019-01-25T09:24:22.826Z,45.03
2019-01-25T09:26:52.375Z,41.68
2019-01-25T09:29:22.003Z,45.12
2019-01-25T09:31:51.577Z,34.95
2019-01-25T09:34:21.727Z,38.28
2019-01-25T09:36:51.561Z,40.25
2019-01-25T09:39:21.159Z,41.42
2019-01-25T09:41:50.728Z,42.00
2019-01-25T09:44:20.380Z,41.77
2019-01-25T09:46:49.935Z,39.95
2019-01-25T09:49:19.799Z,40.50
2019-01-25T09:51:49.638Z,39.58
2019-01-25T09:54:19.192Z,43.45
2019-01-25T09:56:49.311Z,48.55
2019-01-25T09:59:18.863Z,38.80
2019-01-25T10:01:48.413Z,42.53
2019-01-25T10:04:18.075Z,42.80
2019-01-25T10:06:48.553Z,38.02
2019-01-25T10:09:18.167Z,44.90
2019-01-25T10:11:47.794Z,53.52
2019-01-25T10:14:17.923Z,47.20
2019-01-25T10:16:47.734Z,53.73
2019-01-25T10:19:17.323Z,47.78
2019-01-25T10:21:47.177Z,44.58
2019-01-25T10:24:17.002Z,48.48
2019-01-25T10:26:46.578Z,46.28
2019-01-25T10:29:16.215Z,41.83
2019-01-25T10:31:46.028Z,42.17
2019-01-25T10:34:15.868Z,46.77
2019-01-25T10:36:46.029Z,46.42
2019-01-25T10:39:16.104Z,52.43
2019-01-25T10:41:45.683Z,40.65
2019-01-25T10:44:15.271Z,43.60
2019-01-25T10:46:44.819Z,44.45
2019-01-25T10:49:14.440Z,49.25
2019-01-25T10:51:44.015Z,42.35
2019-01-25T10:54:13.617Z,44.30
2019-01-25T10:56:43.185Z,45.43
2019-01-25T10:59:13.046Z,43.90
2019-01-25T11:01:43.167Z,44.20
2019-01-25T11:04:13.004Z,39.75
2019-01-25T11:06:43.147Z,41.95
2019-01-25T11:09:13.289Z,35.23
2019-01-25T11:11:43.140Z,35.33
2019-01-25T11:14:12.969Z,42.45
2019-01-25T11:16:42.846Z,44.88
2019-01-25T11:19:12.460Z,50.43
2019-01-25T11:21:42.387Z,52.13
2019-01-25T11:24:12.249Z,43.08
2019-01-25T11:26:42.115Z,44.40
2019-01-25T11:29:11.975Z,37.42
2019-01-25T11:31:41.588Z,46.80
2019-01-25T11:34:11.159Z,42.73
2019-01-25T11:36:40.801Z,43.87
2019-01-25T11:39:11.973Z,40.73
2019-01-25T11:41:42.051Z,44.65
2019-01-25T11:44:12.152Z,45.75
2019-01-25T11:46:41.763Z,44.42
2019-01-25T11:49:11.580Z,40.92
2019-01-25T11:51:41.239Z,46.33
2019-01-25T11:54:10.796Z,46.02
2019-01-25T11:56:40.968Z,52.67
2019-01-25T11:59:10.528Z,41.50
2019-01-25T12:01:40.123Z,45.50
2019-01-25T12:04:09.733Z,43.02
2019-01-25T12:06:39.585Z,39.58
2019-01-25T12:09:10.129Z,44.83
2019-01-25T12:11:39.943Z,40.60
2019-01-25T12:14:10.025Z,41.13
2019-01-25T12:16:39.914Z,43.73
2019-01-25T12:19:09.721Z,39.85
2019-01-25T12:21:39.548Z,47.93
2019-01-25T12:24:09.177Z,53.15
2019-01-25T12:26:38.702Z,51.00
2019-01-25T12:29:08.441Z,48.90
2019-01-25T12:31:38.292Z,39.00
2019-01-25T12:34:08.719Z,44.85
2019-01-25T12:36:38.582Z,44.85
2019-01-25T12:39:09.770Z,42.45
2019-01-25T12:41:39.384Z,44.85
2019-01-25T12:44:08.947Z,38.45
2019-01-25T12:46:38.792Z,42.48
2019-01-25T12:49:08.630Z,47.13
2019-01-25T12:52:00.001Z,41.15
2019-01-25T12:54:29.834Z,37.23
2019-01-25T12:56:59.691Z,36.83
2019-01-25T12:59:29.537Z,40.40
2019-01-25T13:01:59.419Z,39.42
2019-01-25T13:04:29.279Z,33.88
2019-01-25T13:06:58.932Z,37.67
2019-01-25T13:09:28.556Z,37.83
2019-01-25T13:11:58.135Z,38.17
2019-01-25T13:14:28.039Z,39.33
2019-01-25T13:16:57.580Z,33.30
2019-01-25T13:19:27.113Z,42.75
2019-01-25T13:21:57.042Z,39.38
2019-01-25T13:24:26.639Z,43.40
2019-01-25T13:26:56.231Z,38.08
2019-01-25T13:29:26.305Z,38.92
2019-01-25T13:31:56.199Z,38.83
2019-01-25T13:34:25.830Z,39.23
2019-01-25T13:36:57.179Z,35.55
2019-01-25T13:39:26.985Z,34.58
2019-01-25T13:41:56.603Z,37.15
2019-01-25T13:44:30.121Z,34.00
2019-01-25T13:46:57.640Z,31.23
2019-01-25T13:49:27.248Z,35.55
2019-01-25T13:51:56.828Z,39.05
2019-01-25T13:54:28.793Z,34.20
2019-01-25T13:56:57.956Z,34.58
2019-01-25T13:59:27.546Z,35.38
2019-01-25T14:01:57.178Z,37.85
2019-01-25T14:04:27.081Z,36.05
2019-01-25T14:06:56.699Z,32.15
2019-01-25T14:09:26.586Z,30.80
2019-01-25T14:11:56.156Z,36.38
2019-01-25T14:14:26.040Z,32.83
2019-01-25T14:16:55.662Z,38.38
2019-01-25T14:19:25.220Z,37.20
2019-01-25T14:21:55.084Z,31.17
2019-01-25T14:24:25.154Z,36.00
2019-01-25T14:26:54.722Z,33.33
2019-01-25T14:29:29.163Z,34.30
2019-01-25T14:31:55.827Z,32.55
2019-01-25T14:34:25.639Z,28.45
2019-01-25T14:36:55.236Z,29.72
2019-01-25T14:39:24.810Z,29.40
2019-01-25T14:41:54.442Z,30.43
2019-01-25T14:44:23.963Z,26.48
2019-01-25T14:46:53.501Z,33.53
2019-01-25T14:49:23.131Z,24.07
2019-01-25T14:51:52.703Z,28.65
2019-01-25T14:54:22.508Z,28.40
2019-01-25T14:56:52.105Z,30.40
2019-01-25T14:59:21.689Z,30.55
2019-01-25T15:01:51.275Z,28.57
2019-01-25T15:04:21.143Z,30.85
2019-01-25T15:06:51.016Z,31.37
2019-01-25T15:09:20.639Z,30.00
2019-01-25T15:11:50.238Z,31.30
2019-01-25T15:14:20.056Z,27.70
2019-01-25T15:16:49.643Z,26.50
2019-01-25T15:19:19.221Z,26.73
2019-01-25T15:21:49.056Z,27.73
2019-01-25T15:24:18.932Z,29.98
2019-01-25T15:26:48.783Z,31.45
2019-01-25T15:29:18.428Z,28.77
2019-01-25T15:31:48.275Z,33.60
2019-01-25T15:34:17.876Z,33.63
2019-01-25T15:36:47.661Z,31.73
2019-01-25T15:39:17.267Z,28.87
2019-01-25T15:41:46.847Z,32.13
2019-01-25T15:44:16.969Z,26.93
2019-01-25T15:46:46.787Z,29.63
2019-01-25T15:49:16.662Z,30.97
2019-01-25T15:51:46.562Z,28.62
2019-01-25T15:54:16.085Z,35.05
2019-01-25T15:56:45.681Z,31.48
2019-01-25T15:59:15.797Z,36.95
2019-01-25T16:01:45.381Z,32.48
2019-01-25T16:04:14.959Z,35.17
2019-01-25T16:06:44.524Z,32.38
2019-01-25T16:09:22.136Z,36.28
2019-01-25T16:11:45.861Z,33.75
2019-01-25T16:14:18.124Z,39.67
2019-01-25T16:16:46.657Z,33.50
2019-01-25T16:19:16.238Z,32.03
2019-01-25T16:21:46.100Z,33.80
2019-01-25T16:24:15.731Z,40.83
2019-01-25T16:26:45.602Z,36.40
2019-01-25T16:29:15.164Z,33.95
2019-01-25T16:31:45.018Z,41.15
2019-01-25T16:34:14.834Z,35.63
2019-01-25T16:36:44.929Z,29.40
2019-01-25T16:39:15.043Z,28.35
2019-01-25T16:41:44.660Z,26.40
2019-01-25T16:44:14.860Z,38.75
2019-01-25T16:46:44.750Z,32.75
2019-01-25T16:49:14.587Z,30.97
2019-01-25T16:51:44.430Z,24.32
2019-01-25T16:54:14.268Z,31.57
2019-01-25T16:56:44.109Z,29.42
2019-01-25T16:59:13.733Z,32.38
2019-01-25T17:01:43.268Z,37.53
2019-01-25T17:04:12.866Z,30.72
2019-01-25T17:06:42.694Z,36.85
2019-01-25T17:09:12.395Z,34.58
2019-01-25T17:11:42.263Z,35.70
2019-01-25T17:14:11.822Z,41.10
2019-01-25T17:16:41.380Z,38.67
2019-01-25T17:19:10.952Z,40.67
2019-01-25T17:21:40.825Z,34.30
2019-01-25T17:24:10.435Z,40.63
2019-01-25T17:26:40.302Z,34.53
2019-01-25T17:29:09.857Z,35.92
2019-01-25T17:31:39.424Z,36.05
2019-01-25T17:34:09.262Z,36.33
2019-01-25T17:36:38.816Z,47.53
2019-01-25T17:39:14.122Z,36.20
2019-01-25T17:41:43.649Z,35.92
2019-01-25T17:44:13.211Z,44.65
2019-01-25T17:46:43.041Z,34.50
2019-01-25T17:49:12.629Z,37.60
2019-01-25T17:51:42.188Z,35.00
2019-01-25T17:54:11.783Z,34.78
2019-01-25T17:56:41.863Z,40.33
2019-01-25T17:59:11.591Z,34.05
2019-01-25T18:01:41.544Z,37.55
2019-01-25T18:04:11.345Z,34.33
2019-01-25T18:06:41.173Z,36.03
2019-01-25T18:09:11.031Z,34.23
2019-01-25T18:11:40.884Z,43.00
2019-01-25T18:14:10.480Z,37.23
2019-01-25T18:16:40.330Z,38.17
2019-01-25T18:19:09.885Z,44.50
2019-01-25T18:21:39.462Z,38.08
2019-01-25T18:24:09.351Z,38.10
2019-01-25T18:26:39.212Z,32.75
2019-01-25T18:29:18.719Z,39.90
2019-01-25T18:31:48.256Z,38.75
2019-01-25T18:34:18.123Z,39.78
2019-01-25T18:36:47.950Z,38.67
2019-01-25T18:39:17.817Z,37.08
2019-01-25T18:41:47.658Z,38.25
2019-01-25T18:44:17.541Z,40.83
2019-01-25T18:46:47.506Z,35.55
2019-01-25T18:49:17.342Z,37.30
2019-01-25T18:51:46.892Z,40.85
2019-01-25T18:54:16.986Z,32.65
2019-01-25T18:56:49.330Z,35.08
2019-01-25T18:59:19.400Z,37.17
2019-01-25T19:01:49.769Z,32.42
2019-01-25T19:04:19.568Z,31.95
2019-01-25T19:06:49.411Z,33.05
2019-01-25T19:09:19.267Z,34.63
2019-01-25T19:11:49.088Z,31.85
2019-01-25T19:14:18.959Z,38.60
2019-01-25T19:16:48.516Z,39.85
2019-01-25T19:19:18.344Z,33.65
2019-01-25T19:21:48.201Z,36.50
2019-01-25T19:24:18.056Z,35.73
2019-01-25T19:26:47.604Z,28.70
2019-01-25T19:29:17.238Z,28.23
2019-01-25T19:31:47.164Z,33.65
2019-01-25T19:34:16.887Z,29.95
2019-01-25T19:36:46.472Z,28.87
2019-01-25T19:39:16.493Z,35.40
2019-01-25T19:41:46.671Z,30.62
2019-01-25T19:44:16.232Z,26.93
2019-01-25T19:46:46.084Z,29.65
2019-01-25T19:49:15.944Z,30.52
2019-01-25T19:51:45.484Z,29.37
2019-01-25T19:54:15.081Z,25.12
2019-01-25T19:56:44.710Z,30.52
2019-01-25T19:59:14.407Z,28.38
2019-01-25T20:01:44.034Z,26.85
2019-01-25T20:04:13.891Z,25.82
2019-01-25T20:06:43.462Z,30.60
2019-01-25T20:09:13.422Z,32.20
2019-01-25T20:11:43.368Z,25.80
2019-01-25T20:14:12.982Z,29.72
2019-01-25T20:16:43.048Z,28.05
2019-01-25T20:19:13.144Z,32.55
2019-01-25T20:21:42.731Z,39.63
2019-01-25T20:24:12.363Z,36.63
2019-01-25T20:26:42.219Z,30.35
2019-01-25T20:29:12.019Z,32.70
2019-01-25T20:31:41.616Z,46.33
2019-01-25T20:34:11.187Z,37.50
2019-01-25T20:36:41.318Z,30.55
2019-01-25T20:39:10.911Z,30.75
2019-01-25T20:41:40.712Z,33.73
2019-01-25T20:44:10.358Z,31.07
2019-01-25T20:46:40.420Z,29.98
2019-01-25T20:49:10.035Z,31.37
2019-01-25T20:51:39.719Z,27.85
2019-01-25T20:54:09.285Z,31.10
2019-01-25T20:56:39.105Z,31.00
2019-01-25T20:59:08.938Z,31.10
2019-01-25T21:01:38.533Z,28.45
2019-01-25T21:04:08.520Z,35.78
2019-01-25T21:06:38.111Z,32.93
2019-01-25T21:09:09.872Z,30.75
2019-01-25T21:11:39.456Z,31.55
2019-01-25T21:14:09.674Z,30.00
2019-01-25T21:16:39.354Z,29.20
2019-01-25T21:19:09.210Z,27.70
2019-01-25T21:21:39.088Z,28.23
2019-01-25T21:24:10.067Z,28.57
2019-01-25T21:26:39.894Z,25.70
2019-01-25T21:29:09.437Z,23.52
2019-01-25T21:31:39.046Z,25.72
2019-01-25T21:34:08.895Z,26.23
2019-01-25T21:36:40.187Z,27.52
2019-01-25T21:39:10.714Z,30.05
2019-01-25T21:41:40.265Z,27.82
2019-01-25T21:44:09.851Z,23.50
2019-01-25T21:46:40.226Z,22.58
2019-01-25T21:49:10.266Z,23.67
2019-01-25T21:51:40.400Z,19.48
2019-01-25T21:54:09.923Z,22.95
2019-01-25T21:56:39.546Z,22.45
2019-01-25T21:59:09.459Z,27.00
2019-01-25T22:01:39.286Z,23.15
2019-01-25T22:04:08.935Z,19.42
2019-01-25T22:06:38.759Z,17.12
2019-01-25T22:09:09.226Z,17.62
2019-01-25T22:11:38.816Z,25.48
2019-01-25T22:14:08.386Z,26.25
2019-01-25T22:16:37.970Z,23.83
2019-01-25T22:19:07.555Z,21.12
2019-01-25T22:21:37.106Z,20.97
2019-01-25T22:24:06.824Z,22.45
2019-01-25T22:26:36.515Z,18.05
2019-01-25T22:29:06.144Z,14.80
2019-01-25T22:31:35.728Z,15.48
2019-01-25T22:34:05.799Z,17.73
2019-01-25T22:36:35.612Z,20.00
2019-01-25T22:39:07.978Z,14.93
2019-01-25T22:41:37.595Z,13.28
2019-01-25T22:44:07.205Z,15.10
2019-01-25T22:46:36.786Z,12.68
2019-01-25T22:49:06.663Z,15.25
2019-01-25T22:51:36.214Z,12.78
2019-01-25T22:54:05.919Z,15.68
2019-01-25T22:56:35.737Z,11.83
2019-01-25T22:59:05.890Z,11.97
2019-01-25T23:01:36.486Z,11.45
2019-01-25T23:04:45.953Z,11.05
2019-01-25T23:07:21.663Z,10.40
2019-01-25T23:09:53.531Z,11.73
2019-01-25T23:12:23.399Z,10.03
2019-01-25T23:14:52.972Z,10.58
2019-01-25T23:17:22.591Z,10.20
2019-01-25T23:19:52.451Z,11.20
2019-01-25T23:22:22.007Z,9.78
2019-01-25T23:24:51.902Z,11.73
2019-01-25T23:27:21.701Z,8.60
2019-01-25T23:29:51.251Z,10.25
2019-01-25T23:32:20.831Z,8.03
2019-01-25T23:34:50.502Z,7.60
2019-01-25T23:37:20.071Z,8.68
2019-01-25T23:39:49.670Z,9.20
2019-01-25T23:42:19.485Z,7.78
2019-01-25T23:44:49.311Z,8.50
2019-01-25T23:47:19.156Z,7.78
2019-01-25T23:49:49.004Z,7.67
2019-01-25T23:52:18.541Z,6.87
2019-01-25T23:54:48.457Z,6.62
2019-01-25T23:57:18.054Z,5.60
2019-01-25T23:59:47.645Z,6.40
